Sunday, October 22, 2017, 8:25 PM EDT
Back to Local

KDYL, Doylestown Airport

Location: Doylestown, PA, United States Lat: 40.333
Local Time: 8:25 PM EDT ( 0:25 GMT) Lon: -75.117
Time Zone: US/Eastern Elev: 393 ft

Show me the last for .
Show Decoded

2017-10-22 19:54 METAR KDYL 222354Z AUTO 00000KT 10SM CLR 16/09 A3034 RMK AO2 SLP276 T01610094
                 10233 20161 53001 =
2017-10-22 18:54 METAR KDYL 222254Z AUTO VRB03KT 10SM CLR 17/09 A3033 RMK AO2 SLP272 T01670094 =
2017-10-22 17:54 METAR KDYL 222154Z AUTO 00000KT 10SM CLR 20/08 A3033 RMK AO2 SLP271 T02000083 =
2017-10-22 16:54 METAR KDYL 222054Z AUTO VRB03KT 10SM CLR 22/08 A3034 RMK AO2 SLP273 T02170078
                 56009 =
2017-10-22 15:54 METAR KDYL 221954Z AUTO 20007KT 160V220 10SM CLR 22/06 A3035 RMK AO2 SLP275
                 T02220061 =
2017-10-22 14:54 METAR KDYL 221854Z AUTO VRB05KT 10SM CLR 23/06 A3035 RMK AO2 SLP276 T02280061 =
2017-10-22 13:54 METAR KDYL 221754Z AUTO 15005KT 10SM CLR 23/07 A3036 RMK AO2 SLP281 T02280067
                 10228 20072 58013 =
2017-10-22 12:54 METAR KDYL 221654Z AUTO 17005KT 10SM CLR 22/06 A3038 RMK AO2 SLP287 T02220061 =
2017-10-22 11:54 METAR KDYL 221554Z AUTO 16005KT 10SM CLR 21/05 A3040 RMK AO2 SLP293 T02060050 =
2017-10-22 10:54 METAR KDYL 221454Z AUTO VRB03KT 10SM CLR 19/08 A3040 RMK AO2 SLP295 T01940083
                 50001 =
2017-10-22 09:54 METAR KDYL 221354Z AUTO 00000KT 10SM CLR 16/11 A3040 RMK AO2 SLP295 T01610106 =
2017-10-22 08:54 METAR KDYL 221254Z AUTO 00000KT 10SM CLR 11/09 A3041 RMK AO2 SLP300 T01060089 =
2017-10-22 07:54 METAR KDYL 221154Z AUTO 00000KT 10SM CLR 07/06 A3040 RMK AO2 SLP296 T00720061
                 10094 20067 53015 =
2017-10-22 06:54 METAR KDYL 221054Z AUTO 00000KT 10SM CLR 07/06 A3038 RMK AO2 SLP290 T00720056 =
2017-10-22 05:54 METAR KDYL 220954Z AUTO 00000KT 10SM CLR 07/06 A3037 RMK AO2 SLP285 T00720061 =
2017-10-22 04:54 METAR KDYL 220854Z AUTO 00000KT 10SM CLR 07/06 A3036 RMK AO2 SLP279 T00720056
                 51002 =
2017-10-22 03:54 METAR KDYL 220754Z AUTO 00000KT 10SM CLR 08/07 A3035 RMK AO2 SLP277 T00830067 =
2017-10-22 02:54 METAR KDYL 220654Z AUTO 00000KT 10SM CLR 08/07 A3035 RMK AO2 SLP277 T00830067 =
2017-10-22 01:54 METAR KDYL 220554Z AUTO 00000KT 10SM CLR 10/07 A3035 RMK AO2 SLP276 T01000072
                 10139 20089 58004 =
2017-10-22 00:54 METAR KDYL 220454Z AUTO 00000KT 10SM CLR 10/07 A3036 RMK AO2 SLP280 T01000072
                 402500056 =
2017-10-21 23:54 METAR KDYL 220354Z AUTO 00000KT 10SM CLR 11/08 A3036 RMK AO2 SLP280 T01060078 =
2017-10-21 22:54 METAR KDYL 220254Z AUTO 00000KT 10SM CLR 12/07 A3036 RMK AO2 SLP280 T01170072
                 50005 TSNO =
2017-10-21 21:54 METAR KDYL 220154Z AUTO 00000KT 10SM CLR 12/08 A3036 RMK AO2 SLP282 T01220078 =
2017-10-21 20:54 METAR KDYL 220054Z AUTO 00000KT 10SM CLR 13/08 A3036 RMK AO2 SLP281 T01280078 =

Support USWX by starting your Amazon purchase here.